Time;durP1;ratioP1;P1;durP2;ratioP2;P2;SDS_P1;SDS_P2;PMS_P1;PMS_P2;Temp;Humidity;BMP_temperature;BMP_pressure;BME280_temperature;BME280_humidity;BME280_pressure;Samples;Min_cycle;Max_cycle;Signal;HPM_P1;HPM_P2
2022/08/10 00:02:40;;;;;;;1.10;0.90;;;;;;;20.66;46.60;102548.94;4960051;28;100706;-48
2022/08/10 00:05:06;;;;;;;1.17;0.97;;;;;;;20.62;46.50;102542.88;4960757;28;97258;-48
2022/08/10 00:07:31;;;;;;;3.13;0.80;;;;;;;20.57;46.69;102540.13;4963556;28;97176;-47
2022/08/10 00:09:56;;;;;;;0.70;0.70;;;;;;;20.54;46.83;102530.72;4958656;28;97083;-47
2022/08/10 00:12:22;;;;;;;0.73;0.73;;;;;;;20.53;46.97;102534.78;4955979;28;97418;-47
2022/08/10 00:14:48;;;;;;;1.23;0.90;;;;;;;20.50;46.83;102537.88;4956750;28;98435;-48
2022/08/10 00:17:13;;;;;;;1.30;1.20;;;;;;;20.49;46.84;102534.31;4959133;28;97075;-47
2022/08/10 00:19:38;;;;;;;8.93;1.10;;;;;;;20.47;47.11;102538.88;4958971;28;97426;-47
2022/08/10 00:22:04;;;;;;;1.00;0.87;;;;;;;20.45;47.13;102533.06;4959320;28;98922;-47
2022/08/10 00:24:29;;;;;;;1.00;0.70;;;;;;;20.43;47.16;102525.19;4959041;28;97153;-47
2022/08/10 00:26:54;;;;;;;1.00;0.80;;;;;;;20.42;47.29;102526.44;4962782;28;97226;-47
2022/08/10 00:29:20;;;;;;;1.00;0.90;;;;;;;20.42;47.23;102528.50;4959652;28;97448;-47
2022/08/10 00:31:45;;;;;;;1.20;0.60;;;;;;;20.38;47.17;102517.56;4959742;28;97078;-47
2022/08/10 00:34:11;;;;;;;1.23;0.70;;;;;;;20.34;47.34;102514.28;4960847;28;97113;-47
2022/08/10 00:36:36;;;;;;;0.80;0.80;;;;;;;20.32;47.45;102516.84;4959623;28;97831;-48
2022/08/10 00:39:01;;;;;;;0.80;0.80;;;;;;;20.26;47.59;102515.34;4956455;28;97165;-47
2022/08/10 00:41:26;;;;;;;0.80;0.80;;;;;;;20.20;47.46;102523.75;4959419;28;97470;-47
2022/08/10 00:43:52;;;;;;;0.93;0.93;;;;;;;20.16;47.77;102517.66;4961722;28;97988;-47
2022/08/10 00:46:17;;;;;;;0.93;0.83;;;;;;;20.12;47.94;102522.75;4959732;28;97473;-47
2022/08/10 00:48:43;;;;;;;1.47;1.00;;;;;;;20.07;47.92;102526.34;4957853;28;96969;-48
2022/08/10 00:51:08;;;;;;;3.00;1.00;;;;;;;20.01;48.00;102523.56;4957749;28;99683;-47
2022/08/10 00:53:34;;;;;;;0.83;0.83;;;;;;;19.98;48.00;102526.63;4957079;28;96876;-47
2022/08/10 00:56:00;;;;;;;0.70;0.70;;;;;;;19.97;48.26;102527.88;4957639;28;96875;-47
2022/08/10 00:58:25;;;;;;;0.90;0.90;;;;;;;19.96;48.17;102520.78;4960946;28;97267;-48
2022/08/10 01:00:51;;;;;;;0.73;0.73;;;;;;;19.96;48.16;102523.59;4957238;28;98085;-47
2022/08/10 01:03:16;;;;;;;0.87;0.87;;;;;;;19.94;48.17;102524.06;4959302;28;97237;-47
2022/08/10 01:06:11;;;;;;;0.97;0.97;;;;;;;19.92;48.58;102520.31;4961329;28;97032;-47
2022/08/10 01:08:50;;;;;;;1.93;1.07;;;;;;;19.88;48.88;102522.56;4960220;28;97245;-47
2022/08/10 01:11:29;;;;;;;0.80;0.80;;;;;;;19.83;49.50;102523.38;4956038;28;96720;-47
2022/08/10 01:14:10;;;;;;;1.13;1.13;;;;;;;19.78;49.42;102526.94;4956395;28;97058;-47
2022/08/10 01:16:59;;;;;;;0.70;0.70;;;;;;;19.72;48.90;102521.38;4960430;28;96818;-48
2022/08/10 01:19:46;;;;;;;1.20;1.10;;;;;;;19.67;48.63;102518.56;4955106;28;96979;-47
2022/08/10 01:22:30;;;;;;;1.73;0.77;;;;;;;19.62;48.80;102519.34;4953552;28;100687;-48
2022/08/10 01:25:25;;;;;;;1.37;0.83;;;;;;;19.60;48.81;102516.28;4958382;28;97007;-47
2022/08/10 01:28:14;;;;;;;2.20;0.90;;;;;;;19.53;49.88;102514.03;4957588;28;96985;-48
2022/08/10 01:30:41;;;;;;;0.73;0.73;;;;;;;19.52;48.95;102510.47;4958880;28;97719;-47
2022/08/10 01:33:29;;;;;;;1.43;0.70;;;;;;;19.51;50.08;102508.94;4955968;28;97367;-47
2022/08/10 01:36:01;;;;;;;1.13;1.03;;;;;;;19.48;49.14;102509.97;4957161;28;101500;-48
2022/08/10 01:38:41;;;;;;;2.37;1.10;;;;;;;19.45;49.74;102508.19;4956270;28;97075;-48
2022/08/10 01:41:17;;;;;;;0.90;0.90;;;;;;;19.40;49.60;102501.34;4957876;28;97510;-47
2022/08/10 01:43:52;;;;;;;0.73;0.73;;;;;;;19.39;49.61;102499.84;4956521;28;97121;-47
2022/08/10 01:46:21;;;;;;;1.03;0.90;;;;;;;19.38;49.38;102495.53;4956699;28;97091;-47
2022/08/10 01:48:51;;;;;;;0.90;0.90;;;;;;;19.39;49.47;102499.84;4958765;28;97127;-47
2022/08/10 01:51:39;;;;;;;1.50;0.83;;;;;;;19.38;50.49;102489.16;4958141;28;97080;-47
2022/08/10 01:54:07;;;;;;;0.90;0.90;;;;;;;19.38;49.67;102503.13;4957715;28;100380;-47
2022/08/10 01:56:38;;;;;;;0.87;0.87;;;;;;;19.35;49.62;102495.78;4955963;28;96979;-47
2022/08/10 01:59:08;;;;;;;1.00;0.90;;;;;;;19.34;49.97;102497.00;4959632;28;97130;-47
2022/08/10 02:01:38;;;;;;;1.10;1.10;;;;;;;19.33;49.94;102499.03;4958685;28;97093;-47
2022/08/10 02:04:07;;;;;;;0.80;0.80;;;;;;;19.31;49.95;102496.00;4953854;28;97794;-47
2022/08/10 02:06:37;;;;;;;0.80;0.80;;;;;;;19.28;49.80;102502.63;4955411;28;96945;-47
2022/08/10 02:09:05;;;;;;;1.10;1.00;;;;;;;19.27;49.73;102505.88;4955577;28;96822;-47
2022/08/10 02:11:31;;;;;;;1.20;1.07;;;;;;;19.25;49.85;102500.81;4958720;28;96847;-47
2022/08/10 02:13:58;;;;;;;1.17;1.10;;;;;;;19.24;49.68;102506.94;4956772;28;97953;-48
2022/08/10 02:16:26;;;;;;;1.10;1.00;;;;;;;19.18;49.95;102498.53;4958054;28;96955;-47
2022/08/10 02:18:52;;;;;;;1.27;1.17;;;;;;;19.12;50.04;102499.81;4957387;28;97464;-47
2022/08/10 02:21:19;;;;;;;0.90;0.90;;;;;;;19.09;50.13;102500.84;4957354;28;96815;-47
2022/08/10 02:23:45;;;;;;;1.13;1.00;;;;;;;19.07;50.02;102504.13;4957573;28;97846;-47
2022/08/10 02:26:12;;;;;;;1.13;1.03;;;;;;;19.04;50.12;102498.81;4955396;28;96959;-47
2022/08/10 02:28:38;;;;;;;0.70;0.70;;;;;;;19.02;50.24;102501.34;4956805;28;97354;-47
2022/08/10 02:31:07;;;;;;;1.30;1.20;;;;;;;18.98;50.30;102501.56;4955825;28;96938;-46
2022/08/10 02:33:36;;;;;;;3.73;0.90;;;;;;;18.95;50.34;102505.41;4956568;28;97862;-47
2022/08/10 02:36:03;;;;;;;0.90;0.90;;;;;;;18.93;50.32;102505.13;4953349;28;97138;-47
2022/08/10 02:38:35;;;;;;;1.90;0.83;;;;;;;18.93;50.76;102501.59;4955205;28;97303;-47
2022/08/10 02:41:12;;;;;;;1.63;1.03;;;;;;;18.89;51.16;102509.44;4958545;28;97416;-47
2022/08/10 02:43:49;;;;;;;3.87;1.00;;;;;;;18.84;51.07;102510.97;4958039;28;96882;-47
2022/08/10 02:46:33;;;;;;;2.07;1.13;;;;;;;18.81;51.43;102511.97;4955393;28;97792;-47
2022/08/10 02:49:04;;;;;;;2.20;1.30;;;;;;;18.79;50.95;102508.91;4955383;28;97089;-48
2022/08/10 02:51:45;;;;;;;1.63;1.20;;;;;;;18.77;51.55;102514.25;4955130;28;97307;-47
2022/08/10 02:54:19;;;;;;;1.10;0.93;;;;;;;18.73;51.11;102502.56;4953027;28;97224;-47
2022/08/10 02:57:03;;;;;;;0.93;0.93;;;;;;;18.70;51.71;102507.13;4954950;28;97250;-47
2022/08/10 02:59:41;;;;;;;1.37;1.27;;;;;;;18.69;51.33;102514.00;4956821;28;97649;-47
2022/08/10 03:02:11;;;;;;;1.20;1.10;;;;;;;18.65;51.04;102507.88;4955077;28;96768;-47
2022/08/10 03:04:48;;;;;;;1.37;1.10;;;;;;;18.64;51.80;102508.38;4956298;28;100895;-47
2022/08/10 03:07:16;;;;;;;1.10;1.10;;;;;;;18.62;50.97;102502.56;4956236;28;104474;-47
2022/08/10 03:09:44;;;;;;;1.07;1.00;;;;;;;18.60;50.82;102505.84;4958241;28;97614;-47
2022/08/10 03:12:12;;;;;;;3.47;1.13;;;;;;;18.59;50.95;102500.75;4954863;28;97043;-47
2022/08/10 03:14:39;;;;;;;1.43;0.90;;;;;;;18.58;50.96;102502.03;4953405;28;98550;-47
2022/08/10 03:17:06;;;;;;;2.30;1.20;;;;;;;18.54;51.10;102495.94;4955026;28;97062;-47
2022/08/10 03:19:35;;;;;;;0.83;0.83;;;;;;;18.51;51.17;102500.50;4956341;28;96937;-46
2022/08/10 03:22:02;;;;;;;2.10;1.00;;;;;;;18.47;51.05;102493.66;4950768;28;97450;-47
2022/08/10 03:24:28;;;;;;;1.10;0.90;;;;;;;18.44;51.06;102494.63;4954446;28;98467;-49
2022/08/10 03:26:55;;;;;;;0.90;0.90;;;;;;;18.43;51.20;102490.31;4958190;28;97390;-47
2022/08/10 03:29:22;;;;;;;1.00;0.90;;;;;;;18.38;51.36;102489.03;4959638;28;97165;-47
2022/08/10 03:31:48;;;;;;;0.90;0.90;;;;;;;18.35;51.38;102498.38;4955507;28;96990;-47
2022/08/10 03:34:15;;;;;;;1.43;1.00;;;;;;;18.31;51.42;102489.50;4955870;28;97478;-47
2022/08/10 03:36:42;;;;;;;1.20;1.10;;;;;;;18.27;51.41;102488.22;4953782;28;98441;-48
2022/08/10 03:39:07;;;;;;;1.50;1.40;;;;;;;18.24;51.49;102480.91;4960019;28;97365;-47
2022/08/10 03:41:43;;;;;;;1.13;1.03;;;;;;;18.22;52.10;102494.53;4958536;28;97071;-47
2022/08/10 03:44:11;;;;;;;1.10;1.00;;;;;;;18.17;51.45;102490.50;4949978;28;100602;-47
2022/08/10 03:46:41;;;;;;;0.90;0.90;;;;;;;18.13;51.76;102489.22;4953040;28;97462;-47
2022/08/10 03:49:08;;;;;;;1.03;1.03;;;;;;;18.09;51.48;102499.81;4954736;28;97008;-47
2022/08/10 03:51:34;;;;;;;1.77;1.67;;;;;;;18.06;51.69;102498.03;4940098;28;96970;-47
2022/08/10 03:54:01;;;;;;;1.30;1.20;;;;;;;18.02;51.75;102495.47;4956849;28;97828;-48
2022/08/10 03:56:28;;;;;;;1.10;1.00;;;;;;;17.97;51.82;102494.19;4957675;28;96904;-47
2022/08/10 03:58:54;;;;;;;1.00;1.00;;;;;;;17.93;51.68;102496.44;4959406;28;97623;-47
2022/08/10 04:01:20;;;;;;;3.27;1.30;;;;;;;17.92;51.79;102496.94;4956688;28;96990;-47
2022/08/10 04:03:45;;;;;;;2.23;1.23;;;;;;;17.90;51.85;102488.34;4955803;28;96974;-47
2022/08/10 04:06:11;;;;;;;1.43;0.90;;;;;;;17.88;52.04;102491.63;4960000;28;97333;-47
2022/08/10 04:08:41;;;;;;;1.73;1.10;;;;;;;17.89;52.35;102492.38;4955595;28;96855;-48
2022/08/10 04:11:09;;;;;;;1.40;1.30;;;;;;;17.87;52.02;102501.22;4955329;28;97344;-47
2022/08/10 04:13:34;;;;;;;1.07;1.00;;;;;;;17.84;51.94;102502.22;4954555;28;100612;-47
2022/08/10 04:15:59;;;;;;;1.80;1.03;;;;;;;17.83;51.97;102497.91;4954737;28;97327;-47
2022/08/10 04:18:25;;;;;;;1.20;0.80;;;;;;;17.81;52.00;102500.44;4955478;28;97168;-47
2022/08/10 04:20:57;;;;;;;1.00;1.00;;;;;;;17.81;52.44;102503.22;4955833;28;98216;-47
2022/08/10 04:23:27;;;;;;;1.13;1.13;;;;;;;17.81;52.19;102510.81;4954920;28;97389;-47
2022/08/10 04:25:54;;;;;;;2.40;0.90;;;;;;;17.78;52.18;102507.00;4953843;28;96649;-48
2022/08/10 04:28:19;;;;;;;1.83;1.27;;;;;;;17.79;52.14;102530.81;4957677;28;97121;-47
2022/08/10 04:30:47;;;;;;;1.50;1.40;;;;;;;17.77;52.13;102516.63;4959445;28;97841;-47
2022/08/10 04:33:14;;;;;;;3.13;1.17;;;;;;;17.78;52.35;102517.38;4953918;28;97490;-47
2022/08/10 04:35:41;;;;;;;1.50;1.40;;;;;;;17.77;52.16;102519.41;4957076;28;96941;-47
2022/08/10 04:38:08;;;;;;;1.33;1.33;;;;;;;17.76;52.24;102519.88;4955193;28;96896;-48
2022/08/10 04:40:33;;;;;;;1.57;1.47;;;;;;;17.76;52.18;102523.44;4956289;28;97009;-47
2022/08/10 04:43:01;;;;;;;1.97;1.00;;;;;;;17.78;52.24;102520.91;4957590;28;97081;-47
2022/08/10 04:45:26;;;;;;;1.10;1.10;;;;;;;17.80;52.19;102521.19;4957882;28;97206;-47
2022/08/10 04:47:52;;;;;;;1.37;1.00;;;;;;;17.81;52.34;102525.50;4955081;28;97134;-47
2022/08/10 04:50:17;;;;;;;1.57;1.47;;;;;;;17.80;52.28;102523.22;4953348;28;97546;-48
2022/08/10 04:52:43;;;;;;;1.17;1.17;;;;;;;17.79;52.25;102533.59;4959997;28;98087;-47
2022/08/10 04:55:08;;;;;;;1.50;1.40;;;;;;;17.77;52.09;102527.75;4965528;28;97154;-47
2022/08/10 04:57:33;;;;;;;1.57;1.47;;;;;;;17.76;52.53;102531.78;4959440;28;97539;-47
2022/08/10 04:59:59;;;;;;;2.07;1.07;;;;;;;17.78;52.49;102532.06;4959830;28;96978;-47
2022/08/10 05:02:24;;;;;;;1.13;1.13;;;;;;;17.78;52.51;102529.28;4960594;28;97795;-48
2022/08/10 05:04:49;;;;;;;1.37;1.20;;;;;;;17.81;52.48;102531.06;4957005;28;98355;-47
2022/08/10 05:07:15;;;;;;;2.20;1.30;;;;;;;17.83;52.51;102545.25;4962121;28;97033;-47
2022/08/10 05:09:42;;;;;;;1.83;1.40;;;;;;;17.85;52.41;102539.97;4961934;28;96653;-47
2022/08/10 05:12:07;;;;;;;1.17;1.17;;;;;;;17.86;52.51;102533.13;4957915;28;97974;-47
2022/08/10 05:14:33;;;;;;;1.73;1.20;;;;;;;17.89;52.69;102539.72;4956501;28;97269;-53
2022/08/10 05:16:59;;;;;;;1.67;1.40;;;;;;;17.91;52.64;102542.75;4959340;28;97418;-47
2022/08/10 05:19:27;;;;;;;1.20;1.00;;;;;;;17.94;52.63;102544.56;4955399;28;97391;-47
2022/08/10 05:21:53;;;;;;;1.13;0.87;;;;;;;17.94;52.65;102545.34;4952360;28;97815;-47
2022/08/10 05:24:18;;;;;;;2.80;1.10;;;;;;;17.97;52.86;102546.38;4957348;28;96864;-47
2022/08/10 05:26:44;;;;;;;0.93;0.93;;;;;;;18.02;52.78;102544.88;4954976;28;97604;-48
2022/08/10 05:29:09;;;;;;;2.80;1.30;;;;;;;18.04;52.95;102542.34;4960392;28;97545;-47
2022/08/10 05:31:35;;;;;;;1.80;1.20;;;;;;;18.07;52.89;102544.13;4960644;28;97036;-47
2022/08/10 05:34:00;;;;;;;1.50;1.40;;;;;;;18.11;52.85;102544.66;4955222;28;96966;-47
2022/08/10 05:36:27;;;;;;;1.40;1.30;;;;;;;18.15;53.07;102548.72;4956910;28;97167;-48
2022/08/10 05:38:53;;;;;;;1.23;1.13;;;;;;;18.18;52.95;102547.72;4959205;28;97408;-47
2022/08/10 05:41:19;;;;;;;1.20;1.20;;;;;;;18.22;52.97;102547.47;4958259;28;98250;-47
2022/08/10 05:43:44;;;;;;;1.40;1.30;;;;;;;18.26;53.00;102554.34;4959596;28;97049;-47
2022/08/10 05:46:10;;;;;;;6.70;1.87;;;;;;;18.30;53.15;102552.09;4957631;28;97279;-47
2022/08/10 05:48:36;;;;;;;3.10;1.20;;;;;;;18.36;53.24;102554.91;4956459;28;97139;-48
2022/08/10 05:51:02;;;;;;;1.30;1.20;;;;;;;18.39;53.11;102551.84;4957963;28;96950;-47
2022/08/10 05:53:28;;;;;;;1.10;1.10;;;;;;;18.43;53.26;102554.44;4957110;28;97686;-47
2022/08/10 05:55:54;;;;;;;1.27;1.13;;;;;;;18.49;53.39;102555.22;4960492;28;97121;-47
2022/08/10 05:58:19;;;;;;;2.20;1.50;;;;;;;18.54;53.28;102543.34;4956345;28;97109;-47
2022/08/10 06:00:52;;;;;;;1.20;1.13;;;;;;;18.61;53.39;102548.41;4956614;28;97437;-48
2022/08/10 06:03:24;;;;;;;1.20;1.10;;;;;;;18.65;53.40;102546.91;4958461;28;97435;-47
2022/08/10 06:05:54;;;;;;;1.20;1.10;;;;;;;18.75;53.59;102544.66;4957171;28;97000;-48
2022/08/10 06:08:22;;;;;;;1.43;1.33;;;;;;;18.83;53.51;102554.06;4961672;28;97330;-47
2022/08/10 06:10:52;;;;;;;1.30;1.20;;;;;;;18.91;53.19;102549.53;4952328;28;102203;-47
2022/08/10 06:16:08;;;;;;;1.30;1.17;;;;;;;19.09;53.73;102556.66;4953281;28;97108;-47
2022/08/10 06:18:35;;;;;;;1.23;1.23;;;;;;;19.17;53.15;102550.06;4960640;28;97064;-48
2022/08/10 06:21:02;;;;;;;1.20;1.20;;;;;;;19.27;53.40;102553.34;4956160;28;97204;-47
2022/08/10 06:23:29;;;;;;;1.67;1.20;;;;;;;19.36;53.26;102553.88;4959117;28;101737;-47
2022/08/10 06:25:54;;;;;;;1.60;1.27;;;;;;;19.46;53.30;102562.00;4955726;28;97779;-47
2022/08/10 06:28:22;;;;;;;1.17;1.17;;;;;;;19.56;53.31;102558.44;4955863;28;97128;-47
2022/08/10 06:30:50;;;;;;;2.37;1.40;;;;;;;19.68;53.22;102562.00;4961266;28;97390;-48
2022/08/10 06:33:18;;;;;;;1.40;1.20;;;;;;;19.75;53.34;102561.47;4954542;28;97864;-47
2022/08/10 06:35:47;;;;;;;1.50;1.40;;;;;;;19.84;53.10;102559.16;4957205;28;97165;-49
2022/08/10 06:38:15;;;;;;;1.30;1.20;;;;;;;19.97;53.09;102564.97;4957847;28;97242;-47
2022/08/10 06:40:44;;;;;;;2.93;1.30;;;;;;;20.07;53.12;102568.25;4958938;28;96818;-47
2022/08/10 06:43:13;;;;;;;2.63;1.40;;;;;;;20.19;52.85;102558.56;4961100;28;98032;-48
2022/08/10 06:45:47;;;;;;;1.50;1.40;;;;;;;20.34;52.91;102561.81;4956319;28;97204;-47
2022/08/10 06:48:34;;;;;;;1.30;1.03;;;;;;;20.42;53.25;102557.22;4956854;28;97728;-46
2022/08/10 06:51:03;;;;;;;1.83;1.27;;;;;;;20.52;52.60;102558.44;4955982;28;100697;-49
2022/08/10 06:53:38;;;;;;;1.27;1.17;;;;;;;20.66;52.57;102565.72;4959051;28;98201;-47
2022/08/10 06:56:13;;;;;;;1.93;0.93;;;;;;;20.78;52.60;102560.84;4950622;28;97401;-49
2022/08/10 06:58:48;;;;;;;1.00;1.00;;;;;;;20.89;52.42;102557.97;4958671;28;97983;-48
2022/08/10 07:01:18;;;;;;;1.70;1.40;;;;;;;21.01;51.99;102564.28;4952137;28;97083;-46
2022/08/10 07:03:52;;;;;;;1.20;1.20;;;;;;;21.13;51.86;102563.69;4956009;28;98224;-47
2022/08/10 07:06:20;;;;;;;1.80;1.10;;;;;;;21.24;51.47;102549.63;4956017;28;96708;-46
2022/08/10 07:08:47;;;;;;;2.23;1.63;;;;;;;21.38;51.49;102556.13;4961375;28;96773;-48
2022/08/10 07:11:14;;;;;;;1.60;0.93;;;;;;;21.50;51.06;102563.13;4959147;28;96815;-46
2022/08/10 07:13:42;;;;;;;1.33;1.23;;;;;;;21.60;51.17;102564.31;4957205;28;100747;-46
2022/08/10 07:16:10;;;;;;;1.50;1.40;;;;;;;21.72;51.11;102568.53;4958539;28;97057;-48
2022/08/10 07:18:37;;;;;;;3.37;1.33;;;;;;;21.85;50.79;102548.28;4956189;28;97663;-48
2022/08/10 07:21:06;;;;;;;2.97;1.70;;;;;;;21.98;50.51;102556.81;4958318;28;97267;-47
2022/08/10 07:23:33;;;;;;;1.30;1.20;;;;;;;22.08;50.32;102553.13;4955100;28;97232;-46
2022/08/10 07:26:00;;;;;;;1.77;1.47;;;;;;;22.20;50.18;102554.53;4954428;28;96758;-48
2022/08/10 07:28:30;;;;;;;1.90;1.50;;;;;;;22.33;49.92;102557.41;4959859;28;96864;-48
2022/08/10 07:30:56;;;;;;;3.40;1.23;;;;;;;22.45;49.79;102549.63;4956356;28;100406;-47
2022/08/10 07:33:23;;;;;;;1.27;1.17;;;;;;;22.54;49.47;102552.03;4954103;28;96967;-47
2022/08/10 07:35:49;;;;;;;1.33;1.23;;;;;;;22.68;49.41;102561.31;4958172;28;97689;-47
2022/08/10 07:38:20;;;;;;;1.40;1.30;;;;;;;22.80;49.53;102551.47;4957898;28;97766;-49
2022/08/10 07:40:48;;;;;;;1.13;1.03;;;;;;;22.91;49.00;102552.03;4956699;28;96948;-46
2022/08/10 07:43:16;;;;;;;1.33;1.23;;;;;;;23.04;48.68;102554.16;4956959;28;97307;-47
2022/08/10 07:45:42;;;;;;;1.10;1.10;;;;;;;23.17;48.96;102554.22;4955107;28;97176;-50
2022/08/10 07:48:24;;;;;;;2.10;1.10;;;;;;;23.30;48.37;102548.63;4955798;28;97057;-48
2022/08/10 07:50:54;;;;;;;3.37;1.70;;;;;;;23.43;48.22;102559.16;4956472;28;102161;-47
2022/08/10 07:53:23;;;;;;;1.70;1.30;;;;;;;23.54;48.26;102556.16;4954590;28;97219;-46
2022/08/10 07:55:51;;;;;;;1.50;1.40;;;;;;;23.63;47.83;102552.94;4955458;28;97027;-50
2022/08/10 07:58:18;;;;;;;1.37;1.13;;;;;;;23.75;47.68;102555.00;4956426;28;96978;-45
2022/08/10 08:00:50;;;;;;;1.47;1.37;;;;;;;23.89;47.64;102550.13;4954173;28;97485;-49
2022/08/10 08:03:23;;;;;;;1.40;1.30;;;;;;;23.99;47.36;102551.22;4957241;28;97294;-47
2022/08/10 08:05:49;;;;;;;1.40;1.30;;;;;;;24.12;46.91;102561.72;4952771;28;97307;-48
2022/08/10 08:08:15;;;;;;;1.00;1.00;;;;;;;24.25;46.88;102556.09;4955556;28;97242;-47
2022/08/10 08:10:41;;;;;;;1.40;1.30;;;;;;;24.37;46.90;102554.56;4954103;28;98705;-46
2022/08/10 08:13:07;;;;;;;1.23;1.13;;;;;;;24.49;46.66;102558.63;4953365;28;97054;-49
2022/08/10 08:15:33;;;;;;;2.27;1.50;;;;;;;24.61;46.18;102564.78;4956349;28;97267;-47
2022/08/10 08:18:01;;;;;;;1.50;1.40;;;;;;;24.70;46.09;102562.28;4958491;28;97356;-50
2022/08/10 08:20:27;;;;;;;2.10;1.40;;;;;;;24.81;46.01;102562.06;4961195;28;97558;-46
2022/08/10 08:22:54;;;;;;;1.80;1.40;;;;;;;24.95;45.47;102555.06;4957663;28;97187;-46
2022/08/10 08:25:20;;;;;;;1.43;1.33;;;;;;;25.05;45.66;102558.16;4960838;28;97790;-50
2022/08/10 08:27:51;;;;;;;1.23;1.13;;;;;;;25.19;45.37;102560.34;4958971;28;97712;-49
2022/08/10 08:30:18;;;;;;;1.70;1.60;;;;;;;25.32;45.20;102551.06;4957666;28;102137;-46
2022/08/10 08:32:45;;;;;;;1.63;1.47;;;;;;;25.46;44.85;102549.72;4958152;28;97033;-47
2022/08/10 08:35:13;;;;;;;2.50;1.10;;;;;;;25.60;44.66;102553.22;4958542;28;102172;-46
2022/08/10 08:37:40;;;;;;;1.60;1.50;;;;;;;25.74;44.30;102549.72;4956828;28;97229;-49
2022/08/10 08:40:25;;;;;;;1.70;1.33;;;;;;;25.91;43.61;102546.44;4954388;28;96926;-46
2022/08/10 08:43:09;;;;;;;1.63;1.50;;;;;;;26.03;43.91;102539.94;4962084;28;97339;-50
2022/08/10 08:46:07;;;;;;;1.83;1.40;;;;;;;26.15;42.78;102529.09;4957340;28;97031;-52
2022/08/10 08:48:52;;;;;;;1.67;1.33;;;;;;;26.30;43.10;102532.00;4960213;28;97325;-46
2022/08/10 08:51:42;;;;;;;1.43;1.33;;;;;;;26.48;42.61;102533.75;4961172;28;100683;-47
2022/08/10 08:54:39;;;;;;;1.40;1.30;;;;;;;26.66;41.98;102526.28;4960376;28;103011;-46
2022/08/10 08:57:19;;;;;;;1.30;1.20;;;;;;;26.84;41.78;102532.94;4958241;28;96977;-46
2022/08/10 09:00:04;;;;;;;1.70;1.17;;;;;;;26.97;42.12;102527.88;4962658;28;97242;-48
2022/08/10 09:02:42;;;;;;;1.30;1.20;;;;;;;27.14;41.31;102528.06;4955134;28;100538;-48
2022/08/10 09:05:08;;;;;;;0.97;0.90;;;;;;;27.26;41.72;102529.19;4953973;28;99882;-46
2022/08/10 09:07:48;;;;;;;1.90;1.30;;;;;;;27.39;41.34;102529.03;4956852;28;96935;-46
2022/08/10 09:10:19;;;;;;;1.20;1.10;;;;;;;27.52;40.43;102524.50;4958844;28;97036;-50
2022/08/10 09:12:56;;;;;;;2.30;1.10;;;;;;;27.62;39.50;102522.59;4958802;28;97789;-47
2022/08/10 09:15:27;;;;;;;2.40;1.33;;;;;;;27.74;40.08;102530.09;4959718;28;96821;-49
2022/08/10 09:18:20;;;;;;;1.70;1.60;;;;;;;27.87;39.50;102529.16;4957040;28;97165;-46
2022/08/10 09:20:57;;;;;;;1.57;1.30;;;;;;;27.98;39.21;102506.13;4957243;28;97074;-49
2022/08/10 09:24:20;;;;;;;2.60;1.60;;;;;;;28.06;38.92;102510.44;4956556;28;97548;-48
2022/08/10 09:26:50;;;;;;;1.23;1.13;;;;;;;28.25;39.39;102512.03;4903652;28;100270;-47
2022/08/10 09:29:27;;;;;;;1.30;0.93;;;;;;;28.41;38.33;102514.22;4899859;28;96959;-46
2022/08/10 09:32:08;;;;;;;1.20;1.10;;;;;;;28.57;38.08;102510.00;4935409;28;97202;-49
2022/08/10 09:34:49;;;;;;;1.77;1.47;;;;;;;28.73;37.25;102516.31;4960569;28;97026;-49
2022/08/10 09:37:30;;;;;;;3.43;1.13;;;;;;;28.73;36.78;102519.16;4957241;28;96697;-47
2022/08/10 09:39:59;;;;;;;1.37;1.27;;;;;;;28.80;37.21;102515.53;4959891;28;97003;-48
2022/08/10 09:42:40;;;;;;;1.20;1.10;;;;;;;28.85;36.95;102512.44;4956450;28;96939;-52
2022/08/10 09:45:30;;;;;;;1.13;1.03;;;;;;;29.02;36.98;102511.78;4952801;28;101319;-48
2022/08/10 09:48:20;;;;;;;1.30;1.20;;;;;;;29.18;36.67;102507.50;4956341;28;100242;-47
2022/08/10 09:51:37;;;;;;;2.70;1.10;;;;;;;29.24;35.92;102504.44;4958132;28;97519;-49
2022/08/10 09:54:04;;;;;;;1.13;1.03;;;;;;;29.33;36.35;102493.22;4943105;28;97339;-49
2022/08/10 09:56:55;;;;;;;1.20;1.00;;;;;;;29.33;33.45;102498.88;4957571;28;97119;-46
2022/08/10 09:59:39;;;;;;;1.63;1.30;;;;;;;29.35;34.77;102501.88;4956549;28;100196;-50
2022/08/10 10:02:13;;;;;;;1.47;0.90;;;;;;;29.38;34.99;102500.69;4962063;28;97118;-47
2022/08/10 10:05:11;;;;;;;1.63;1.03;;;;;;;29.45;34.63;102505.56;4959694;28;97078;-50
2022/08/10 10:07:41;;;;;;;1.17;1.07;;;;;;;29.59;35.59;102506.75;4956434;28;100763;-49
2022/08/10 10:10:15;;;;;;;1.30;1.20;;;;;;;29.71;35.56;102498.47;4957201;28;96793;-46
2022/08/10 10:12:49;;;;;;;0.80;0.80;;;;;;;29.79;34.96;102496.34;4959436;28;99088;-48
2022/08/10 10:15:43;;;;;;;4.73;0.93;;;;;;;29.81;34.58;102495.75;4958457;28;97180;-49
2022/08/10 10:18:27;;;;;;;0.90;0.80;;;;;;;29.82;34.17;102492.31;4958384;28;102014;-48
2022/08/10 10:21:14;;;;;;;1.20;0.83;;;;;;;29.85;34.29;102484.72;4955208;28;100047;-47
2022/08/10 10:23:48;;;;;;;0.80;0.80;;;;;;;29.89;34.33;102482.22;4952465;28;97937;-47
2022/08/10 10:26:31;;;;;;;3.33;1.00;;;;;;;29.97;34.01;102491.41;4956329;28;96962;-49
2022/08/10 10:29:20;;;;;;;1.47;0.90;;;;;;;30.01;34.14;102474.69;4958235;28;97146;-47
2022/08/10 10:31:51;;;;;;;1.87;1.17;;;;;;;29.99;33.70;102483.06;4952764;28;103128;-50
2022/08/10 10:34:43;;;;;;;2.03;0.90;;;;;;;30.00;33.27;102468.25;4956635;28;96947;-48
2022/08/10 10:37:11;;;;;;;1.00;1.00;;;;;;;30.08;34.33;102466.06;4957094;28;96717;-50
2022/08/10 10:39:42;;;;;;;1.97;1.10;;;;;;;30.14;33.90;102472.22;4958281;28;97735;-46
2022/08/10 10:42:19;;;;;;;1.10;0.97;;;;;;;30.22;33.07;102469.28;4956760;28;97143;-49
2022/08/10 10:45:30;;;;;;;1.33;1.13;;;;;;;30.25;32.79;102468.84;4953355;28;96892;-48
2022/08/10 10:48:16;;;;;;;1.00;0.90;;;;;;;30.31;32.49;102465.78;4956856;28;96932;-49
2022/08/10 10:51:00;;;;;;;1.13;1.03;;;;;;;30.29;33.39;102457.09;4954700;28;97400;-50
2022/08/10 10:53:33;;;;;;;1.93;0.80;;;;;;;30.18;33.27;102449.09;4953460;28;102435;-50
2022/08/10 10:56:09;;;;;;;1.10;1.10;;;;;;;30.21;32.81;102460.03;4956210;28;97050;-48
2022/08/10 10:58:34;;;;;;;1.00;1.00;;;;;;;30.25;33.36;102443.28;4954304;28;97338;-49
2022/08/10 11:01:07;;;;;;;0.97;0.90;;;;;;;30.37;32.50;102452.06;4955308;28;97182;-47
2022/08/10 11:03:41;;;;;;;1.70;1.00;;;;;;;30.48;32.92;102450.75;4958104;28;101686;-47
2022/08/10 11:06:32;;;;;;;0.97;0.80;;;;;;;30.54;31.79;102443.47;4954869;28;97138;-47
2022/08/10 11:09:04;;;;;;;2.10;1.00;;;;;;;30.63;32.73;102448.44;4954209;28;97649;-46
2022/08/10 11:11:33;;;;;;;1.10;1.00;;;;;;;30.75;32.66;102434.44;4957029;28;97310;-47
2022/08/10 11:14:29;;;;;;;2.17;1.00;;;;;;;30.84;31.65;102440.13;4957228;28;97565;-49
2022/08/10 11:17:08;;;;;;;0.70;0.60;;;;;;;30.95;31.96;102438.88;4955991;28;97068;-47
2022/08/10 11:19:49;;;;;;;0.80;0.80;;;;;;;31.00;31.46;102443.50;4956318;28;97383;-49
2022/08/10 11:23:02;;;;;;;1.63;0.87;;;;;;;30.98;31.25;102438.41;4952775;28;98627;-52
2022/08/10 11:25:35;;;;;;;0.97;0.83;;;;;;;31.10;31.67;102436.47;4898163;28;100211;-48
2022/08/10 11:28:29;;;;;;;1.20;1.10;;;;;;;31.17;30.99;102431.25;4947801;28;97117;-48
2022/08/10 11:31:09;;;;;;;2.20;0.70;;;;;;;31.32;30.72;102420.34;4956104;28;96994;-48
2022/08/10 11:33:45;;;;;;;1.70;0.83;;;;;;;31.40;30.38;102429.47;4956249;28;101100;-49
2022/08/10 11:36:13;;;;;;;1.07;0.97;;;;;;;31.44;31.14;102417.66;4956782;28;97040;-51
2022/08/10 11:38:56;;;;;;;1.20;1.10;;;;;;;31.51;30.33;102411.09;4955804;28;97167;-49
2022/08/10 11:41:39;;;;;;;1.87;1.03;;;;;;;31.66;28.81;102413.63;4954684;28;97318;-46
2022/08/10 11:44:17;;;;;;;1.00;0.90;;;;;;;31.67;30.54;102409.44;4953233;28;100597;-48
2022/08/10 11:47:09;;;;;;;0.90;0.90;;;;;;;31.78;29.85;102403.13;4955675;28;102828;-46
2022/08/10 11:50:17;;;;;;;1.50;1.00;;;;;;;31.90;29.10;102414.63;4954395;28;97034;-48
2022/08/10 11:52:57;;;;;;;1.23;0.70;;;;;;;31.89;30.50;102413.16;4956473;28;96908;-51